دمياط, مصر

04:14 AM EET on أمتèبر 23, 2014 (GMT +0200)
Port Said | Change Station
CLOSE
Current Station
Airport
Location: Port Said Airport,
Elevation: 7 ft
Nearby Weather Stations

Elev 7 ft 31.28 °N, 32.24 °E | Updated 14 minutes ago

Clear
صافية
68 °F
Feels Like 68 °F
N
2
ريح متغير ريح from جنوب

هذا اليوم
High -- | Low -- °F
--% Chance of Precip.
Yesterday
High -- | Low -- °F
Precip. -- في
6:01 AM 5:12 PM
الهلال الأخير, 1% visible
الضغط 29.95 في
وضوح الرؤية -9999.0 أميال
سحابات
نقطة الندى 63 °F
الرطوبة 83%
Rainfall 0.00 في
عمق الثلج Not available.
الأشعة فوق البنفسجية Not available.
Pollen Not available.
جودة الهواء Not available.
Flu Activity Not available.
METAR HEPS 230200Z 17002KT CAVOK 20/17 Q1014 NOSIG

More Conditions Fewer Conditions

الضغط 29.95 في
وضوح الرؤية -9999.0 أميال
سحابات
نقطة الندى 63 °F
الرطوبة 83%
Rainfall 0.00 في
عمق الثلج Not available.
الأشعة فوق البنفسجية Not available.
Pollen Not available.
جودة الهواء Not available.
Flu Activity Not available.
METAR HEPS 230200Z 17002KT CAVOK 20/17 Q1014 NOSIG

More Conditions Fewer Conditions

10-Day Weather Forecast

Almanac

علم الفلك

Oct. 23, 2014 Rise Set
Actual Time 6:01 AM EET 5:12 PM EET
Civil Twilight 5:36 AM EET 5:37 PM EET
Nautical Twilight 5:08 AM EET 6:05 PM EET
Astronomical Twilight 4:39 AM EET 6:33 PM EET
قمر 5:23 AM EET 5:00 PM EET
Length Of Visible Light 12h 00m
طول الیوم
11h 11m
Tomorrow will be 1m 48s shorter.
الهلال الأخير, 1% of the Moon is Illuminated
Oct 22
الهلال الأخير
Oct 23
New
Oct 30
الربع الاول
Nov 6
بدر
Nov 14
الربع الآخر

Yesterday's Extremes

Country Highs Country Lows

Community

WunderPhotos

Upload Photos

1,764,109 photos uploaded!

Nearby

جودة الهواء

Not available.

عمق الثلج

Not available.

Earthquake Activity

City Distance Mag. Time & Date
No recent earthquake activity has been reported nearby.
Minimum magnitude displayed is 2.5.

Coastal Water Temperatures

مكان درجات الحرارة
No Stations Reporting

Nearby Weather Stations